Time;durP1;ratioP1;P1;durP2;ratioP2;P2;SDS_P1;SDS_P2;PMS_P1;PMS_P2;Temp;Humidity;BMP_temperature;BMP_pressure;BME280_temperature;BME280_humidity;BME280_pressure;Samples;Min_cycle;Max_cycle;Signal;HPM_P1;HPM_P2
2023/07/16 00:00:50;;;;;;;6.72;1.92;;;16.70;99.90;;;;;;5083077;28;20123;-80
2023/07/16 00:03:15;;;;;;;7.50;2.40;;;16.70;99.90;;;;;;5087028;28;20119;-81
2023/07/16 00:05:41;;;;;;;12.32;2.72;;;16.60;99.90;;;;;;5091392;28;20648;-81
2023/07/16 00:08:07;;;;;;;7.38;2.60;;;16.70;99.90;;;;;;5082460;28;20044;-81
2023/07/16 00:10:38;;;;;;;8.32;2.47;;;16.70;99.90;;;;;;5074152;28;20097;-81
2023/07/16 00:13:04;;;;;;;5.18;2.40;;;16.80;99.90;;;;;;5092442;28;20527;-81
2023/07/16 00:15:30;;;;;;;6.32;2.33;;;16.80;99.90;;;;;;5072451;28;20036;-81
2023/07/16 00:17:55;;;;;;;5.28;2.22;;;16.70;99.90;;;;;;5073143;28;20119;-81
2023/07/16 00:20:23;;;;;;;6.68;2.22;;;16.60;99.90;;;;;;5091903;28;20035;-81
2023/07/16 00:22:50;;;;;;;10.73;2.80;;;16.60;99.90;;;;;;5088197;28;20156;-81
2023/07/16 00:25:16;;;;;;;5.78;2.60;;;16.60;99.90;;;;;;5058812;28;20062;-81
2023/07/16 00:27:41;;;;;;;6.55;2.53;;;16.60;99.90;;;;;;5085847;28;20040;-81
2023/07/16 00:30:08;;;;;;;6.85;2.33;;;16.50;99.90;;;;;;5085352;28;20067;-81
2023/07/16 00:32:34;;;;;;;5.05;2.28;;;16.60;99.90;;;;;;5084248;28;20050;-80
2023/07/16 00:35:01;;;;;;;7.25;2.35;;;16.50;99.90;;;;;;5093437;28;20028;-81
2023/07/16 00:37:27;;;;;;;6.55;2.42;;;16.60;99.90;;;;;;5074051;28;20539;-81
2023/07/16 00:39:52;;;;;;;6.65;2.30;;;16.50;99.90;;;;;;5091755;28;20032;-81
2023/07/16 00:42:18;;;;;;;10.13;2.88;;;16.50;99.90;;;;;;5070463;27;20055;-81
2023/07/16 00:44:44;;;;;;;8.10;2.35;;;16.40;99.90;;;;;;5097501;27;20124;-81
2023/07/16 00:47:11;;;;;;;4.95;2.40;;;16.40;99.90;;;;;;5084309;27;20519;-81
2023/07/16 00:49:38;;;;;;;9.27;2.80;;;16.40;99.90;;;;;;5101198;27;20032;-81
2023/07/16 00:52:05;;;;;;;5.80;1.83;;;16.40;99.90;;;;;;5088159;27;20400;-80
2023/07/16 00:54:31;;;;;;;8.45;2.65;;;16.40;99.90;;;;;;5081267;27;20061;-80
2023/07/16 00:56:57;;;;;;;8.55;2.55;;;16.40;99.90;;;;;;5097856;27;20095;-81
2023/07/16 00:59:22;;;;;;;9.45;2.92;;;16.50;99.90;;;;;;5103650;27;20032;-81
2023/07/16 01:01:48;;;;;;;5.57;2.30;;;16.50;99.90;;;;;;5107499;27;20035;-81
2023/07/16 01:04:14;;;;;;;6.53;2.33;;;16.50;99.90;;;;;;5099256;27;20648;-81
2023/07/16 01:06:44;;;;;;;8.02;2.65;;;16.40;99.90;;;;;;5082111;28;20059;-81
2023/07/16 01:09:20;;;;;;;7.63;3.20;;;16.40;99.90;;;;;;5087559;28;20042;-81
2023/07/16 01:11:48;;;;;;;9.35;2.60;;;16.40;99.90;;;;;;5083196;27;20083;-81
2023/07/16 01:14:16;;;;;;;7.63;2.72;;;16.40;99.90;;;;;;5104892;27;20088;-81
2023/07/16 01:16:43;;;;;;;8.05;2.45;;;16.40;99.90;;;;;;5095803;27;20096;-81
2023/07/16 01:19:09;;;;;;;7.20;2.38;;;16.30;99.90;;;;;;5080185;28;20478;-81
2023/07/16 01:21:56;;;;;;;7.85;2.63;;;16.30;99.90;;;;;;5099284;28;20103;-81
2023/07/16 01:24:40;;;;;;;7.35;2.42;;;16.30;99.90;;;;;;5095592;28;20050;-81
2023/07/16 01:27:25;;;;;;;5.25;2.40;;;16.30;99.90;;;;;;5083319;28;20031;-81
2023/07/16 01:30:04;;;;;;;10.73;2.20;;;16.20;99.90;;;;;;5082534;28;20101;-80
2023/07/16 01:32:34;;;;;;;5.57;2.20;;;16.20;99.90;;;;;;5081998;28;20425;-80
2023/07/16 01:34:59;;;;;;;6.15;2.33;;;16.20;99.90;;;;;;5086495;28;20123;-80
2023/07/16 01:37:25;;;;;;;6.55;2.15;;;16.20;99.90;;;;;;5093983;28;20126;-80
2023/07/16 01:39:51;;;;;;;8.07;2.50;;;16.20;99.90;;;;;;5099369;28;20047;-81
2023/07/16 01:42:17;;;;;;;10.77;2.53;;;16.20;99.90;;;;;;5103283;28;20563;-80
2023/07/16 01:44:45;;;;;;;6.32;2.40;;;16.20;99.90;;;;;;5088401;28;20106;-81
2023/07/16 01:47:12;;;;;;;3.55;2.00;;;16.20;99.90;;;;;;5086022;28;20790;-81
2023/07/16 01:49:41;;;;;;;4.43;2.30;;;16.10;99.90;;;;;;5095671;28;20044;-80
2023/07/16 01:52:08;;;;;;;6.03;2.20;;;16.10;99.90;;;;;;5089394;28;20032;-81
2023/07/16 01:54:35;;;;;;;6.47;2.13;;;16.10;99.90;;;;;;5087345;28;20028;-81
2023/07/16 01:57:01;;;;;;;6.40;2.45;;;16.10;99.90;;;;;;5092140;28;20075;-81
2023/07/16 01:59:27;;;;;;;5.53;2.15;;;16.10;99.90;;;;;;5089709;28;20102;-81
2023/07/16 02:01:52;;;;;;;4.35;2.08;;;16.20;99.90;;;;;;5088093;28;20488;-81
2023/07/16 02:04:18;;;;;;;6.38;2.33;;;16.20;99.90;;;;;;5075279;28;20044;-80
2023/07/16 02:06:43;;;;;;;4.60;2.45;;;16.20;99.90;;;;;;5074904;28;20036;-81
2023/07/16 02:09:10;;;;;;;9.05;2.83;;;16.20;99.90;;;;;;5093983;28;20028;-81
2023/07/16 02:11:36;;;;;;;7.13;2.58;;;16.10;99.90;;;;;;5085231;28;20139;-81
2023/07/16 02:14:01;;;;;;;8.15;4.03;;;16.10;99.90;;;;;;5090010;28;20491;-81
2023/07/16 02:16:27;;;;;;;8.70;2.60;;;16.20;99.90;;;;;;5073855;28;20036;-80
2023/07/16 02:18:53;;;;;;;8.10;2.67;;;16.20;99.90;;;;;;5084639;28;20480;-81
2023/07/16 02:21:18;;;;;;;10.32;2.85;;;16.20;99.90;;;;;;5094803;28;20055;-81
2023/07/16 02:23:44;;;;;;;7.22;2.65;;;16.10;99.90;;;;;;5094647;28;20277;-80
2023/07/16 02:26:12;;;;;;;6.38;2.65;;;16.10;99.90;;;;;;5074843;28;20039;-80
2023/07/16 02:28:37;;;;;;;5.40;2.70;;;16.20;99.90;;;;;;5095375;28;20399;-81
2023/07/16 02:31:03;;;;;;;6.20;2.75;;;16.20;99.90;;;;;;5090994;28;20075;-81
2023/07/16 02:33:29;;;;;;;8.70;2.97;;;16.20;99.90;;;;;;5092426;28;20444;-81
2023/07/16 02:35:54;;;;;;;5.93;2.97;;;16.20;99.90;;;;;;5093235;28;20116;-80
2023/07/16 02:38:20;;;;;;;7.85;3.40;;;16.20;99.90;;;;;;5076791;28;20051;-81
2023/07/16 02:40:47;;;;;;;8.43;3.28;;;16.20;99.90;;;;;;5097697;28;20039;-81
2023/07/16 02:43:13;;;;;;;7.05;3.28;;;16.30;99.90;;;;;;5091324;28;20063;-81
2023/07/16 02:45:39;;;;;;;8.68;3.05;;;16.30;99.90;;;;;;5093958;28;20067;-81
2023/07/16 02:48:06;;;;;;;10.00;3.03;;;16.40;99.90;;;;;;5076801;28;20390;-81
2023/07/16 02:50:38;;;;;;;6.55;3.40;;;16.40;99.90;;;;;;5079139;28;20036;-81
2023/07/16 02:53:05;;;;;;;8.65;3.90;;;16.40;99.90;;;;;;5094896;28;20036;-81
2023/07/16 02:55:32;;;;;;;7.07;3.33;;;16.40;99.90;;;;;;5086364;28;20428;-81
2023/07/16 02:57:57;;;;;;;7.03;3.30;;;16.30;99.90;;;;;;5082050;28;20055;-81
2023/07/16 03:00:23;;;;;;;6.18;3.10;;;16.40;99.90;;;;;;5106604;27;20047;-81
2023/07/16 03:02:49;;;;;;;8.00;3.47;;;16.30;99.90;;;;;;5072039;28;20036;-81
2023/07/16 03:05:18;;;;;;;7.60;3.50;;;16.50;99.90;;;;;;5073706;28;20499;-81
2023/07/16 03:07:44;;;;;;;6.65;3.25;;;16.50;99.90;;;;;;5085640;28;20360;-81
2023/07/16 03:10:10;;;;;;;11.77;3.55;;;16.40;99.90;;;;;;5091486;28;20027;-81
2023/07/16 03:12:35;;;;;;;10.02;3.33;;;16.40;99.90;;;;;;5086520;28;20054;-80
2023/07/16 03:15:01;;;;;;;7.57;3.22;;;16.40;99.90;;;;;;5089036;28;20023;-81
2023/07/16 03:17:27;;;;;;;7.57;3.50;;;16.30;99.90;;;;;;5087622;28;20115;-80
2023/07/16 03:19:52;;;;;;;6.22;3.20;;;16.30;99.90;;;;;;5091411;28;20112;-81
2023/07/16 03:22:18;;;;;;;12.10;3.85;;;16.40;99.90;;;;;;5076553;28;20080;-81
2023/07/16 03:24:44;;;;;;;9.30;3.50;;;16.30;99.90;;;;;;5092850;28;20031;-81
2023/07/16 03:27:10;;;;;;;6.40;3.28;;;16.30;99.90;;;;;;5089309;28;20498;-80
2023/07/16 03:29:36;;;;;;;8.63;3.38;;;16.30;99.90;;;;;;5086021;28;20472;-81
2023/07/16 03:32:02;;;;;;;9.80;3.80;;;16.30;99.90;;;;;;5090592;28;20671;-81
2023/07/16 03:34:27;;;;;;;7.95;3.58;;;16.30;99.90;;;;;;5092365;28;20067;-81
2023/07/16 03:36:53;;;;;;;8.07;3.90;;;16.30;99.90;;;;;;5091784;28;20075;-81
2023/07/16 03:39:19;;;;;;;8.50;3.70;;;16.30;99.90;;;;;;5088561;28;20043;-81
2023/07/16 03:41:44;;;;;;;8.77;3.25;;;16.40;99.90;;;;;;5090207;28;20062;-81
2023/07/16 03:44:11;;;;;;;5.72;3.35;;;16.30;99.90;;;;;;5088935;28;20056;-81
2023/07/16 03:46:37;;;;;;;9.75;3.60;;;16.30;99.90;;;;;;5089136;28;20040;-81
2023/07/16 03:49:07;;;;;;;6.63;3.55;;;16.20;99.90;;;;;;5092020;28;20089;-81
2023/07/16 03:51:32;;;;;;;6.85;3.50;;;16.30;99.90;;;;;;5075395;28;20082;-81
2023/07/16 03:53:58;;;;;;;7.90;3.60;;;16.30;99.90;;;;;;5090108;28;20456;-81
2023/07/16 03:56:24;;;;;;;9.23;3.08;;;16.30;99.90;;;;;;5089685;28;20047;-81
2023/07/16 03:58:50;;;;;;;7.75;3.25;;;16.30;99.90;;;;;;5087368;28;20045;-81
2023/07/16 04:01:16;;;;;;;6.20;3.15;;;16.30;99.90;;;;;;5085523;28;20470;-81
2023/07/16 04:03:42;;;;;;;8.18;3.45;;;16.30;99.90;;;;;;5072709;28;20047;-81
2023/07/16 04:06:12;;;;;;;6.25;3.28;;;16.30;99.90;;;;;;5075890;28;20038;-81
2023/07/16 04:08:37;;;;;;;9.25;3.70;;;16.30;99.90;;;;;;5088675;28;20036;-81
2023/07/16 04:11:05;;;;;;;10.50;3.78;;;16.30;99.90;;;;;;5089624;28;20517;-81
2023/07/16 04:13:31;;;;;;;6.35;3.60;;;16.30;99.90;;;;;;5093377;28;20043;-81
2023/07/16 04:15:57;;;;;;;10.45;3.60;;;16.20;99.90;;;;;;5088380;28;20043;-81
2023/07/16 04:18:26;;;;;;;8.25;3.78;;;16.30;99.90;;;;;;5069693;28;20070;-81
2023/07/16 04:20:53;;;;;;;8.13;3.72;;;16.40;99.90;;;;;;5091427;28;20370;-81
2023/07/16 04:23:18;;;;;;;9.68;3.38;;;16.40;99.90;;;;;;5094505;28;20036;-81
2023/07/16 04:25:44;;;;;;;9.13;4.20;;;16.40;99.90;;;;;;5068805;28;20047;-81
2023/07/16 04:28:11;;;;;;;11.38;3.90;;;16.40;99.90;;;;;;5088975;28;20408;-81
2023/07/16 04:30:39;;;;;;;10.52;3.83;;;16.50;99.90;;;;;;5087023;28;20028;-81
2023/07/16 04:33:05;;;;;;;7.47;3.33;;;16.50;99.90;;;;;;5089962;28;20560;-81
2023/07/16 04:35:33;;;;;;;9.82;4.00;;;16.60;99.90;;;;;;5089573;28;20043;-81
2023/07/16 04:37:59;;;;;;;8.40;3.78;;;16.60;99.90;;;;;;5079346;28;20062;-81
2023/07/16 04:40:24;;;;;;;13.93;4.38;;;16.70;99.90;;;;;;5087753;28;20040;-81
2023/07/16 04:42:50;;;;;;;10.52;4.03;;;16.80;99.90;;;;;;5091507;27;20154;-81
2023/07/16 04:45:16;;;;;;;10.50;4.32;;;16.80;99.90;;;;;;5099381;27;20046;-81
2023/07/16 04:47:43;;;;;;;8.93;3.95;;;16.90;99.90;;;;;;5106604;27;20076;-81
2023/07/16 04:50:09;;;;;;;9.95;5.25;;;16.90;99.90;;;;;;5100401;27;20043;-81
2023/07/16 04:52:35;;;;;;;9.27;4.20;;;17.00;99.90;;;;;;5097407;27;20043;-81
2023/07/16 04:55:00;;;;;;;9.85;4.18;;;17.00;99.90;;;;;;5090203;28;20028;-81
2023/07/16 04:57:26;;;;;;;8.15;4.00;;;17.10;99.90;;;;;;5099402;27;20498;-81
2023/07/16 04:59:52;;;;;;;9.10;4.07;;;17.10;99.90;;;;;;5108176;27;20035;-81
2023/07/16 05:02:17;;;;;;;11.10;3.83;;;17.20;99.90;;;;;;5088283;28;20042;-80
2023/07/16 05:04:48;;;;;;;14.43;5.00;;;17.20;99.90;;;;;;5082667;28;20039;-81
2023/07/16 05:07:14;;;;;;;10.98;3.80;;;17.30;99.90;;;;;;5085926;28;20250;-81
2023/07/16 05:09:40;;;;;;;9.80;4.00;;;17.30;99.90;;;;;;5105212;27;20055;-81
2023/07/16 05:12:06;;;;;;;13.93;3.85;;;17.30;99.90;;;;;;5099054;27;20544;-81
2023/07/16 05:14:42;;;;;;;8.45;3.80;;;17.40;99.90;;;;;;5102912;27;20040;-81
2023/07/16 05:17:07;;;;;;;9.68;3.35;;;17.40;99.90;;;;;;5079064;27;20047;-81
2023/07/16 05:19:33;;;;;;;9.10;3.90;;;17.50;99.90;;;;;;5095689;28;20051;-81
2023/07/16 05:21:59;;;;;;;10.10;3.85;;;17.50;99.90;;;;;;5094384;27;20075;-80
2023/07/16 05:24:24;;;;;;;12.07;3.60;;;17.50;99.90;;;;;;5095686;28;20040;-81
2023/07/16 05:26:51;;;;;;;9.15;3.90;;;17.60;99.90;;;;;;5095963;28;20253;-81
2023/07/16 05:29:16;;;;;;;9.35;3.22;;;17.60;99.90;;;;;;5102165;28;20039;-81
2023/07/16 05:31:42;;;;;;;8.45;3.50;;;17.60;99.90;;;;;;5104951;28;20047;-81
2023/07/16 05:34:08;;;;;;;8.05;3.58;;;17.80;99.90;;;;;;5092223;28;20505;-81
2023/07/16 05:36:34;;;;;;;9.10;3.20;;;17.90;99.90;;;;;;5097467;28;20154;-81
2023/07/16 05:39:00;;;;;;;9.85;3.45;;;17.80;99.90;;;;;;5081964;28;20035;-81
2023/07/16 05:41:25;;;;;;;9.95;3.60;;;18.00;99.90;;;;;;5103605;28;20453;-81
2023/07/16 05:43:51;;;;;;;9.18;3.63;;;18.00;99.90;;;;;;5087944;28;20056;-80
2023/07/16 05:46:17;;;;;;;7.30;3.28;;;18.00;99.90;;;;;;5083635;28;20068;-81
2023/07/16 05:48:45;;;;;;;6.93;3.17;;;18.10;99.90;;;;;;5076175;28;20040;-81
2023/07/16 05:51:10;;;;;;;7.05;3.50;;;18.10;99.90;;;;;;5091410;28;20077;-81
2023/07/16 05:53:36;;;;;;;6.88;3.20;;;18.20;99.90;;;;;;5088614;28;20489;-81
2023/07/16 05:56:02;;;;;;;6.65;2.92;;;18.20;99.90;;;;;;5066544;28;20063;-81
2023/07/16 05:58:29;;;;;;;7.93;3.63;;;18.30;99.90;;;;;;5073764;28;20742;-81
2023/07/16 06:00:55;;;;;;;5.95;2.92;;;18.30;99.90;;;;;;5080801;28;20536;-81
2023/07/16 06:03:20;;;;;;;7.20;3.08;;;18.30;99.90;;;;;;5085380;28;20044;-80
2023/07/16 06:05:46;;;;;;;7.95;3.22;;;18.30;99.90;;;;;;5083493;28;20095;-81
2023/07/16 06:08:12;;;;;;;10.45;3.53;;;18.30;99.90;;;;;;5073056;28;20043;-81
2023/07/16 06:10:38;;;;;;;7.88;3.28;;;18.20;99.90;;;;;;5093577;28;20863;-81
2023/07/16 06:13:04;;;;;;;7.75;3.15;;;18.30;99.90;;;;;;5088225;28;20032;-81
2023/07/16 06:15:30;;;;;;;9.77;3.55;;;18.30;99.90;;;;;;5071437;28;20042;-81
2023/07/16 06:17:55;;;;;;;6.75;3.30;;;18.40;99.90;;;;;;5086186;28;20301;-81
2023/07/16 06:20:21;;;;;;;8.18;3.38;;;18.50;99.90;;;;;;5091487;28;20111;-81
2023/07/16 06:22:46;;;;;;;5.97;3.50;;;18.60;99.90;;;;;;5089126;28;20593;-81
2023/07/16 06:25:12;;;;;;;9.07;3.38;;;18.50;99.90;;;;;;5082625;28;20043;-82
2023/07/16 06:27:38;;;;;;;8.35;3.60;;;18.40;99.90;;;;;;5084253;28;20113;-81
2023/07/16 06:30:05;;;;;;;9.02;3.50;;;18.50;99.90;;;;;;5087475;28;20082;-81
2023/07/16 06:32:31;;;;;;;8.30;3.75;;;18.70;99.90;;;;;;5083708;28;20039;-81
2023/07/16 06:34:57;;;;;;;8.45;3.72;;;18.60;99.90;;;;;;5092083;28;20115;-81
2023/07/16 06:37:23;;;;;;;5.45;3.63;;;18.60;99.90;;;;;;5090927;28;20438;-81
2023/07/16 06:39:49;;;;;;;6.20;3.15;;;18.70;99.90;;;;;;5091375;28;20087;-81
2023/07/16 06:42:15;;;;;;;5.57;3.33;;;18.50;99.90;;;;;;5066653;27;20071;-81
2023/07/16 06:44:41;;;;;;;10.85;3.85;;;18.60;99.90;;;;;;5087331;27;20031;-81
2023/07/16 06:47:07;;;;;;;12.20;3.72;;;18.70;99.90;;;;;;5081947;27;20101;-81
2023/07/16 06:49:32;;;;;;;8.23;3.55;;;18.80;99.90;;;;;;5106908;27;20500;-81
2023/07/16 06:52:01;;;;;;;8.50;3.33;;;18.80;99.90;;;;;;5087886;27;20447;-81
2023/07/16 06:54:27;;;;;;;9.85;4.20;;;18.90;99.90;;;;;;5110247;27;20055;-81
2023/07/16 06:56:53;;;;;;;9.45;3.67;;;19.00;99.90;;;;;;5096654;27;20088;-81
2023/07/16 06:59:18;;;;;;;8.90;3.97;;;18.90;99.90;;;;;;5101778;27;20124;-81
2023/07/16 07:01:44;;;;;;;10.35;3.97;;;19.00;99.90;;;;;;5102924;27;20046;-81
2023/07/16 07:04:13;;;;;;;7.10;4.60;;;18.90;99.90;;;;;;5113033;27;20123;-81
2023/07/16 07:06:38;;;;;;;8.25;4.10;;;19.00;99.90;;;;;;5086289;27;20248;-81
2023/07/16 07:09:04;;;;;;;8.10;3.72;;;19.00;99.90;;;;;;5101090;27;20240;-81
2023/07/16 07:11:31;;;;;;;9.00;4.35;;;19.10;99.90;;;;;;5085130;27;20443;-81
2023/07/16 07:13:57;;;;;;;8.95;3.88;;;19.10;99.90;;;;;;5106007;27;20045;-81
2023/07/16 07:16:23;;;;;;;9.70;4.15;;;19.20;99.90;;;;;;5087824;27;20042;-81
2023/07/16 07:18:49;;;;;;;9.85;4.35;;;19.20;99.90;;;;;;5102766;27;20501;-81
2023/07/16 07:21:15;;;;;;;8.77;3.83;;;19.70;99.90;;;;;;5101233;27;20072;-81
2023/07/16 07:23:40;;;;;;;11.88;4.25;;;19.80;99.90;;;;;;5095089;27;20430;-81
2023/07/16 07:26:06;;;;;;;9.40;3.80;;;19.80;99.90;;;;;;5097992;27;20039;-81
2023/07/16 07:28:32;;;;;;;7.10;3.30;;;19.90;99.90;;;;;;5100948;27;20032;-81
2023/07/16 07:30:59;;;;;;;6.38;3.90;;;19.90;99.90;;;;;;5104732;27;20411;-81
2023/07/16 07:33:24;;;;;;;7.80;3.80;;;20.10;99.90;;;;;;5086024;27;20430;-80
2023/07/16 07:35:54;;;;;;;7.53;4.13;;;19.80;99.90;;;;;;5087312;27;20038;-81
2023/07/16 07:38:22;;;;;;;7.47;3.80;;;19.70;99.90;;;;;;5087524;27;20350;-81
2023/07/16 07:40:48;;;;;;;10.38;4.32;;;19.50;99.90;;;;;;5083715;27;20371;-81
2023/07/16 07:43:13;;;;;;;11.07;4.35;;;19.70;99.90;;;;;;5104678;27;20051;-80
2023/07/16 07:45:39;;;;;;;7.35;3.97;;;19.70;99.90;;;;;;5105148;27;20064;-81
2023/07/16 07:48:05;;;;;;;8.38;4.03;;;20.00;99.90;;;;;;5102982;27;20089;-81
2023/07/16 07:50:30;;;;;;;8.55;3.38;;;20.10;99.90;;;;;;5081378;27;20394;-81
2023/07/16 07:52:56;;;;;;;9.60;4.10;;;20.10;99.90;;;;;;5099668;27;20513;-81
2023/07/16 07:55:22;;;;;;;7.95;4.22;;;20.10;99.90;;;;;;5082951;27;20318;-81
2023/07/16 07:57:50;;;;;;;8.38;3.60;;;20.20;99.90;;;;;;5092511;27;20407;-81
2023/07/16 08:00:16;;;;;;;10.02;3.95;;;20.00;99.90;;;;;;5105475;27;20594;-81
2023/07/16 08:02:42;;;;;;;8.45;3.92;;;20.10;99.90;;;;;;5102098;27;20036;-81
2023/07/16 08:05:08;;;;;;;7.70;3.78;;;20.00;99.90;;;;;;5103184;27;20075;-82
2023/07/16 08:07:33;;;;;;;7.38;3.90;;;20.20;99.90;;;;;;5096155;27;20131;-81
2023/07/16 08:09:59;;;;;;;8.00;4.05;;;20.40;99.90;;;;;;5097182;27;20521;-81
2023/07/16 08:12:25;;;;;;;6.78;3.35;;;20.40;99.90;;;;;;5096592;27;20039;-81
2023/07/16 08:14:53;;;;;;;6.82;3.40;;;20.40;99.90;;;;;;5082815;27;20038;-81
2023/07/16 08:17:18;;;;;;;10.07;3.95;;;20.40;99.90;;;;;;5097964;27;20429;-81
2023/07/16 08:19:44;;;;;;;8.48;3.67;;;20.10;99.90;;;;;;5079664;27;20040;-81
2023/07/16 08:22:11;;;;;;;7.05;3.75;;;20.00;99.90;;;;;;5091722;27;20105;-81
2023/07/16 08:24:37;;;;;;;12.35;4.03;;;20.00;99.90;;;;;;5107543;27;20054;-81
2023/07/16 08:27:03;;;;;;;5.05;3.40;;;20.00;99.90;;;;;;5112650;27;20039;-81
2023/07/16 08:29:28;;;;;;;8.55;3.97;;;20.10;99.90;;;;;;5110573;27;20058;-81
2023/07/16 08:31:54;;;;;;;10.48;3.70;;;20.30;99.90;;;;;;5103751;27;20448;-81
2023/07/16 08:34:20;;;;;;;7.95;3.60;;;20.30;99.90;;;;;;5084962;27;20138;-81
2023/07/16 08:36:46;;;;;;;9.15;4.20;;;20.30;99.90;;;;;;5096051;27;20505;-81
2023/07/16 08:39:12;;;;;;;6.72;3.65;;;20.30;99.90;;;;;;5100546;27;20414;-81
2023/07/16 08:41:38;;;;;;;9.77;4.10;;;20.40;99.90;;;;;;5077292;27;20039;-81
2023/07/16 08:44:05;;;;;;;6.72;3.60;;;20.10;91.40;;;;;;5093500;27;20067;-81
2023/07/16 08:46:31;;;;;;;8.75;3.90;;;20.20;99.90;;;;;;5095916;27;20066;-81
2023/07/16 08:48:59;;;;;;;8.90;4.20;;;20.10;91.90;;;;;;5099052;27;20035;-82
2023/07/16 08:51:25;;;;;;;8.55;3.85;;;20.50;99.90;;;;;;5093917;27;20352;-81
2023/07/16 08:53:51;;;;;;;9.60;4.00;;;20.90;1.00;;;;;;5103337;27;20084;-81
2023/07/16 08:56:16;;;;;;;8.70;3.80;;;21.50;99.90;;;;;;5082645;28;20044;-81
2023/07/16 08:58:45;;;;;;;8.80;3.80;;;21.90;99.90;;;;;;5101721;27;20040;-81
2023/07/16 09:01:11;;;;;;;9.95;3.92;;;22.20;73.80;;;;;;5101764;27;20039;-81
2023/07/16 09:03:37;;;;;;;8.98;4.22;;;22.20;99.90;;;;;;5096729;27;20044;-81
2023/07/16 09:06:04;;;;;;;6.40;3.70;;;22.20;1.00;;;;;;5087915;28;20039;-81
2023/07/16 09:08:30;;;;;;;6.25;4.00;;;21.90;99.90;;;;;;5098993;27;20035;-81
2023/07/16 09:10:56;;;;;;;7.70;3.58;;;21.80;99.90;;;;;;5096672;27;20177;-81
2023/07/16 09:13:26;;;;;;;11.18;3.70;;;21.90;42.60;;;;;;5101880;27;20113;-81
2023/07/16 09:15:53;;;;;;;8.02;4.03;;;22.10;99.90;;;;;;5100721;27;20031;-81
2023/07/16 09:18:24;;;;;;;7.22;4.32;;;21.60;99.90;;;;;;5099199;27;20043;-81
2023/07/16 09:20:57;;;;;;;7.25;3.10;;;21.50;99.90;;;;;;5099070;27;20073;-81
2023/07/16 09:23:27;;;;;;;9.95;3.78;;;21.40;99.90;;;;;;5085547;28;20035;-81
2023/07/16 09:25:54;;;;;;;7.18;3.53;;;21.70;99.90;;;;;;5090040;28;20051;-81
2023/07/16 09:28:20;;;;;;;9.40;4.07;;;21.50;1.00;;;;;;5095321;28;20044;-81
2023/07/16 09:30:47;;;;;;;7.40;3.30;;;21.30;99.90;;;;;;5081174;28;20055;-81
2023/07/16 09:33:18;;;;;;;8.80;3.60;;;21.00;99.90;;;;;;5099852;28;20100;-81
2023/07/16 09:35:44;;;;;;;7.15;3.47;;;21.00;29.70;;;;;;5093945;28;20044;-81
2023/07/16 09:38:10;;;;;;;6.35;3.83;;;20.70;99.90;;;;;;5079426;28;20519;-81
2023/07/16 09:40:37;;;;;;;7.78;4.20;;;20.80;99.90;;;;;;5082758;28;20110;-81
2023/07/16 09:43:04;;;;;;;7.57;3.92;;;21.00;1.00;;;;;;5094172;28;20063;-82
2023/07/16 09:45:30;;;;;;;7.70;3.90;;;21.20;99.90;;;;;;5097307;28;20076;-82
2023/07/16 09:47:56;;;;;;;11.75;3.90;;;21.10;1.00;;;;;;5077447;28;20076;-81
2023/07/16 09:50:28;;;;;;;10.93;3.70;;;21.00;99.90;;;;;;5076647;28;20081;-81
2023/07/16 09:52:55;;;;;;;7.85;3.53;;;21.10;1.00;;;;;;5061853;28;20050;-81
2023/07/16 09:55:22;;;;;;;6.53;3.40;;;21.30;1.00;;;;;;5076942;28;20077;-81
2023/07/16 09:57:49;;;;;;;6.65;3.97;;;21.50;99.90;;;;;;5075627;28;20437;-82
2023/07/16 10:00:16;;;;;;;8.13;3.97;;;21.50;1.00;;;;;;5076420;28;20123;-81
2023/07/16 10:02:44;;;;;;;6.90;3.42;;;21.60;99.90;;;;;;5061635;28;20075;-81
2023/07/16 10:05:13;;;;;;;8.02;4.03;;;21.50;99.90;;;;;;5073907;28;20032;-81
2023/07/16 10:07:40;;;;;;;7.22;3.33;;;21.10;99.90;;;;;;5059392;28;20061;-81
2023/07/16 10:10:11;;;;;;;7.82;3.25;;;21.60;1.00;;;;;;5080862;28;20038;-82
2023/07/16 10:12:37;;;;;;;5.25;3.33;;;21.70;99.90;;;;;;5056369;28;20031;-81
2023/07/16 10:15:05;;;;;;;6.57;3.60;;;21.50;99.90;;;;;;5065801;28;20047;-81
2023/07/16 10:17:32;;;;;;;5.03;3.30;;;21.10;99.90;;;;;;5082254;28;20056;-81
2023/07/16 10:20:15;;;;;;;6.00;3.67;;;21.50;99.90;;;;;;5072248;28;20043;-81
2023/07/16 10:22:43;;;;;;;9.57;4.10;;;21.50;99.90;;;;;;5078291;28;20036;-81
2023/07/16 10:25:18;;;;;;;6.60;3.85;;;22.10;99.90;;;;;;5068636;28;20490;-81
2023/07/16 10:27:48;;;;;;;6.22;3.70;;;22.10;1.00;;;;;;5086827;28;20123;-81
2023/07/16 10:30:14;;;;;;;7.50;3.95;;;22.20;99.90;;;;;;5099364;27;20051;-81
2023/07/16 10:32:40;;;;;;;6.28;3.53;;;22.40;75.00;;;;;;5084382;28;20043;-81
2023/07/16 10:35:10;;;;;;;5.78;3.40;;;22.30;99.90;;;;;;5087210;28;20039;-82
2023/07/16 10:37:37;;;;;;;8.75;4.65;;;22.20;99.90;;;;;;5080573;28;20064;-81
2023/07/16 10:40:04;;;;;;;5.28;3.70;;;21.90;99.90;;;;;;5067243;28;20500;-81
2023/07/16 10:42:31;;;;;;;7.53;4.03;;;21.40;1.00;;;;;;5084105;27;20142;-81
2023/07/16 10:45:02;;;;;;;7.72;3.88;;;21.30;99.90;;;;;;5089250;27;20128;-81
2023/07/16 10:47:32;;;;;;;10.85;4.07;;;21.40;1.00;;;;;;5100355;27;20565;-81
2023/07/16 10:49:58;;;;;;;8.18;4.22;;;21.60;1.00;;;;;;5099436;27;20039;-81
2023/07/16 10:52:27;;;;;;;7.63;3.55;;;22.00;93.10;;;;;;5097503;27;20386;-82
2023/07/16 10:54:57;;;;;;;9.93;3.97;;;22.20;99.90;;;;;;5122036;27;20170;-81
2023/07/16 10:57:27;;;;;;;7.35;3.60;;;22.00;15.30;;;;;;5108838;27;20095;-81
2023/07/16 10:59:53;;;;;;;6.57;3.75;;;21.80;99.90;;;;;;5106009;27;20703;-81
2023/07/16 11:02:21;;;;;;;6.95;3.38;;;21.80;99.90;;;;;;5111242;27;20086;-81
2023/07/16 11:04:48;;;;;;;6.97;3.40;;;22.10;1.00;;;;;;5101533;27;20119;-81
2023/07/16 11:07:15;;;;;;;6.88;3.47;;;22.60;99.90;;;;;;5104835;27;20120;-81
2023/07/16 11:09:44;;;;;;;5.60;3.58;;;22.80;99.90;;;;;;5099603;27;20115;-81
2023/07/16 11:12:12;;;;;;;7.75;3.50;;;22.80;99.90;;;;;;5082150;27;20057;-81
2023/07/16 11:14:39;;;;;;;6.70;3.40;;;22.60;99.00;;;;;;5093767;27;20032;-81
2023/07/16 11:17:07;;;;;;;5.13;3.17;;;22.30;99.90;;;;;;5110537;27;20041;-80
2023/07/16 11:19:33;;;;;;;7.82;3.50;;;22.20;99.90;;;;;;5090011;27;20500;-81
2023/07/16 11:22:00;;;;;;;6.05;3.25;;;22.00;1.00;;;;;;5100993;27;20039;-81
2023/07/16 11:24:27;;;;;;;7.43;3.30;;;21.80;99.50;;;;;;5087899;27;20039;-81
2023/07/16 11:26:57;;;;;;;6.55;3.80;;;21.60;1.00;;;;;;5088965;27;20502;-81
2023/07/16 11:29:24;;;;;;;9.15;3.58;;;21.60;63.80;;;;;;5105670;27;20111;-81
2023/07/16 11:31:51;;;;;;;6.07;3.22;;;21.50;99.90;;;;;;5105365;27;20306;-81
2023/07/16 11:34:19;;;;;;;9.43;3.60;;;21.70;99.90;;;;;;5109075;27;20677;-82
2023/07/16 11:36:44;;;;;;;6.28;3.15;;;21.80;1.00;;;;;;5098208;27;20038;-81
2023/07/16 11:39:13;;;;;;;7.32;4.00;;;21.30;1.00;;;;;;5091161;27;20415;-81
2023/07/16 11:41:39;;;;;;;8.77;3.60;;;21.20;99.90;;;;;;5101176;27;20110;-81
2023/07/16 11:44:07;;;;;;;7.63;3.42;;;21.10;99.90;;;;;;5095285;27;20149;-81
2023/07/16 11:46:34;;;;;;;8.32;3.60;;;21.20;99.90;;;;;;5103893;27;20453;-81
2023/07/16 11:49:03;;;;;;;5.10;3.00;;;20.90;99.90;;;;;;5103273;27;20083;-81
2023/07/16 11:51:29;;;;;;;6.35;3.58;;;20.90;99.90;;;;;;5085738;28;20031;-81
2023/07/16 11:53:57;;;;;;;6.68;3.30;;;20.70;1.00;;;;;;5099747;27;20035;-81
2023/07/16 11:56:23;;;;;;;7.60;3.90;;;20.80;1.00;;;;;;5115389;27;20136;-82
2023/07/16 11:58:49;;;;;;;5.60;3.50;;;21.30;99.90;;;;;;5087342;27;20063;-81
2023/07/16 12:01:15;;;;;;;8.38;3.90;;;21.70;99.90;;;;;;5093316;27;20050;-81
2023/07/16 12:03:41;;;;;;;8.30;4.10;;;21.90;99.90;;;;;;5092546;27;20445;-81
2023/07/16 12:06:08;;;;;;;8.32;4.00;;;21.70;91.30;;;;;;5095695;27;20607;-81
2023/07/16 12:08:33;;;;;;;8.73;3.97;;;22.00;99.90;;;;;;5099169;27;20378;-81
2023/07/16 12:10:59;;;;;;;7.72;3.60;;;22.00;38.50;;;;;;5091829;27;20044;-81
2023/07/16 12:13:24;;;;;;;6.28;3.55;;;22.30;78.80;;;;;;5093164;27;20043;-81
2023/07/16 12:15:50;;;;;;;8.23;4.03;;;22.10;99.90;;;;;;5098841;27;20066;-81
2023/07/16 12:18:15;;;;;;;7.03;3.90;;;21.60;99.90;;;;;;5105021;27;20035;-81
2023/07/16 12:20:41;;;;;;;4.65;3.58;;;21.40;1.00;;;;;;5099401;27;20042;-81
2023/07/16 12:23:09;;;;;;;6.70;3.53;;;21.40;99.90;;;;;;5105145;27;20035;-81
2023/07/16 12:25:35;;;;;;;6.45;3.72;;;21.40;1.00;;;;;;5106684;27;20335;-81
2023/07/16 12:28:01;;;;;;;8.05;3.65;;;21.70;72.80;;;;;;5098104;27;20443;-81
2023/07/16 12:30:27;;;;;;;6.43;4.82;;;22.00;99.90;;;;;;5092357;27;20036;-81
2023/07/16 12:32:53;;;;;;;9.50;3.50;;;22.10;1.00;;;;;;5108245;27;20036;-81
2023/07/16 12:35:19;;;;;;;6.95;3.83;;;21.80;99.90;;;;;;5105151;27;20035;-82
2023/07/16 12:37:44;;;;;;;7.22;4.22;;;21.40;1.00;;;;;;5081763;27;20416;-81
2023/07/16 12:40:11;;;;;;;6.97;3.92;;;21.50;99.90;;;;;;5087370;27;20145;-81
2023/07/16 12:42:37;;;;;;;10.48;3.80;;;21.20;99.90;;;;;;5087849;27;20147;-81